Home > Products > Valid Products > TAF

000
FTUS45 KPSR 261200 AAA
TAFPHX
TAF AMD
KPHX 261252Z 2613/2712 12005KT P6SM FEW150 BKN250
     FM262200 26003KT P6SM VCSH SCT080 BKN120 OVC150
     FM270100 26004KT P6SM -RA SCT040 OVC060
     FM270400 08004KT P6SM VCSH SCT040 OVC060
     FM270800 10004KT P6SM SCT040 OVC060=



000
FTUS45 KPSR 261100
TAFIWA
TAF
KIWA 261120Z 2612/2712 11005KT P6SM FEW150 OVC250
     FM262200 26003KT P6SM VCSH SCT080 BKN120 OVC150
     FM270100 26004KT P6SM -RA SCT040 OVC060
     FM270400 08004KT P6SM VCSH SCT040 OVC060
     FM270800 12004KT P6SM SCT040 OVC060
      AMD LTD TO CLD VIS AND WIND TIL 261300=



000
FTUS45 KPSR 261100
TAFIWA
TAF
KIWA 261120Z 2612/2712 11005KT P6SM FEW150 OVC250
     FM262200 26003KT P6SM VCSH SCT080 BKN120 OVC150
     FM270100 26004KT P6SM -RA SCT040 OVC060
     FM270400 08004KT P6SM VCSH SCT040 OVC060
     FM270800 12004KT P6SM SCT040 OVC060
      AMD LTD TO CLD VIS AND WIND TIL 261300=



000
FTUS45 KPSR 261100
TAFIPL
TAF
KIPL 261120Z 2612/2712 27004KT P6SM -RA SCT070 BKN100
     FM261400 27004KT P6SM -RA FEW030 SCT050 OVC070
     FM261600 01004KT P6SM -SHRA SCT040 OVC060
     FM270400 VRB04KT P6SM SCT030 BKN050=



000
FTUS45 KPSR 261100
TAFPHX
TAF
KPHX 261120Z 2612/2712 11005KT P6SM FEW150 OVC250
     FM262200 26003KT P6SM VCSH SCT080 BKN120 OVC150
     FM270100 26004KT P6SM -RA SCT040 OVC060
     FM270400 08004KT P6SM VCSH SCT040 OVC060
     FM270800 10004KT P6SM SCT040 OVC060=



000
FTUS45 KPSR 261100
TAFBLH
TAF
KBLH 261120Z 2612/2712 VRB03KT P6SM SCT080 OVC150
     FM261800 VRB05KT P6SM -SHRA FEW040 SCT060 OVC080
     FM262000 01006KT P6SM -RA SCT030 OVC050
     FM270400 36003KT P6SM VCSH FEW025 BKN050 BKN100
     FM270600 33005KT P6SM SCT030 BKN040=



000
FTUS45 KPSR 260800 AAA
TAFPHX
TAF AMD
KPHX 260802Z 2608/2706 08004KT P6SM FEW150 BKN250
     FM261400 13006KT P6SM SCT100 BKN150 OVC200
     FM262200 25004KT P6SM VCSH SCT080 BKN100 OVC150
     FM270100 26005KT P6SM -RA SCT040 OVC060=



000
FTUS45 KPSR 260500
TAFIWA
TAF
KIWA 260520Z 2606/2706 11005KT P6SM FEW120 SCT180 BKN250
     FM261400 12005KT P6SM SCT100 BKN150 OVC200
     FM262100 26005KT P6SM VCSH SCT070 BKN100 OVC150
     FM270100 31005KT P6SM -RA SCT040 OVC060
      AMD LTD TO CLD VIS AND WIND TIL 261300=



000
FTUS45 KPSR 260500
TAFIPL
TAF
KIPL 260520Z 2606/2706 26005KT P6SM FEW100 BKN150 BKN250
     FM261200 26005KT P6SM SCT070 BKN100 OVC150
     FM261600 28008KT P6SM -RA FEW030 SCT050 OVC070
     FM262000 35006KT P6SM -RA SCT030 OVC050
     FM270300 VRB04KT P6SM VCSH FEW025 BKN050 BKN100=



000
FTUS45 KPSR 260500
TAFIWA
TAF
KIWA 260520Z 2606/2706 11005KT P6SM FEW120 SCT180 BKN250
     FM261400 12005KT P6SM SCT100 BKN150 OVC200
     FM262100 26005KT P6SM VCSH SCT070 BKN100 OVC150
     FM270100 31005KT P6SM -RA SCT040 OVC060
      AMD LTD TO CLD VIS AND WIND TIL 261300=



000
FTUS45 KPSR 260500
TAFBLH
TAF
KBLH 260520Z 2606/2706 33005KT P6SM FEW100 SCT150 BKN200
     FM261200 VRB04KT P6SM SCT070 BKN100 OVC150
     FM261700 VRB05KT P6SM -RA FEW040 SCT060 OVC080
     FM262000 01006KT P6SM -RA SCT030 OVC050
     FM270400 35005KT P6SM VCSH FEW025 BKN050 BKN100=



000
FTUS45 KPSR 260500
TAFPHX
TAF
KPHX 260520Z 2606/2706 08004KT P6SM FEW120 SCT170 BKN250
     FM261400 13006KT P6SM SCT100 BKN150 OVC200
     FM262200 25004KT P6SM VCSH SCT080 BKN100 OVC150
     FM270100 26005KT P6SM -RA SCT040 OVC060=



000
FTUS45 KPSR 260400 AAA
TAFIPL
TAF AMD
KIPL 260409Z 2604/2624 26005KT P6SM FEW100 BKN150 BKN250
     FM261200 26005KT P6SM SCT070 BKN100 OVC150
     FM261600 28008KT P6SM -RA FEW030 SCT050 OVC070
     FM262000 35006KT P6SM -RA SCT030 OVC050=



000
FTUS45 KPSR 260400 AAA
TAFIWA
TAF AMD
KIWA 260408Z 2604/2624 10005KT P6SM FEW120 SCT180 BKN250
     FM261400 12005KT P6SM SCT100 BKN150 OVC200
     FM262100 26005KT P6SM VCSH SCT080 BKN100 OVC150
      AMD LTD TO CLD VIS AND WIND TIL 261300=



000
FTUS45 KPSR 260400 AAA
TAFIWA
TAF AMD
KIWA 260408Z 2604/2624 10005KT P6SM FEW120 SCT180 BKN250
     FM261400 12005KT P6SM SCT100 BKN150 OVC200
     FM262100 26005KT P6SM VCSH SCT080 BKN100 OVC150
      AMD LTD TO CLD VIS AND WIND TIL 261300=



000
FTUS45 KPSR 260200 AAA
TAFPHX
TAF AMD
KPHX 260256Z 2603/2624 08004KT P6SM FEW120 FEW180 BKN250
     FM261300 13006KT P6SM SCT100 BKN150 OVC200
     FM262200 25004KT P6SM VCSH SCT080 BKN100 OVC150=



000
FTUS45 KPSR 252300
TAFIWA
TAF
KIWA 252320Z 2600/2624 VRB04KT P6SM SCT180 BKN250
     FM260500 10005KT P6SM FEW120 SCT180 BKN250
     FM261400 12005KT P6SM SCT100 BKN150 OVC200
     FM262100 26005KT P6SM VCSH SCT080 BKN100 OVC150
      AMD LTD TO CLD VIS AND WIND 2603/2613=



000
FTUS45 KPSR 252300
TAFBLH
TAF
KBLH 252320Z 2600/2624 08007KT P6SM FEW170 BKN250
     FM260300 33005KT P6SM FEW100 SCT150 BKN200
     FM261200 VRB04KT P6SM SCT070 BKN100 OVC150
     FM261700 VRB05KT P6SM -RA FEW040 SCT060 OVC080
     FM262000 01006KT P6SM -RA SCT030 OVC050=



000
FTUS45 KPSR 252300
TAFIPL
TAF
KIPL 252320Z 2600/2624 VRB05KT P6SM FEW150 BKN250
     FM260500 26005KT P6SM FEW100 BKN150 BKN250
     FM261200 26005KT P6SM SCT070 BKN100 OVC150
     FM261600 28008KT P6SM -RA FEW030 SCT050 OVC070
     FM262000 35006KT P6SM -RA SCT030 OVC050=



000
FTUS45 KPSR 252300
TAFIWA
TAF
KIWA 252320Z 2600/2624 VRB04KT P6SM SCT180 BKN250
     FM260500 10005KT P6SM FEW120 SCT180 BKN250
     FM261400 12005KT P6SM SCT100 BKN150 OVC200
     FM262100 26005KT P6SM VCSH SCT080 BKN100 OVC150
      AMD LTD TO CLD VIS AND WIND 2603/2613=



000
FTUS45 KPSR 252300
TAFPHX
TAF
KPHX 252320Z 2600/2624 VRB04KT P6SM SCT180 BKN250
     FM260800 09004KT P6SM FEW120 SCT180 BKN250
     FM261300 13006KT P6SM SCT100 BKN150 OVC200
     FM262200 25004KT P6SM VCSH SCT080 BKN100 OVC150=



000
FTUS45 KPSR 252200 AAA
TAFBLH
TAF AMD
KBLH 252212Z 2522/2618 08007KT P6SM FEW250
     FM260300 34005KT P6SM FEW070 SCT100 BKN200
     FM261200 VRB04KT P6SM SCT070 OVC100=



000
FTUS45 KPSR 252000 AAA
TAFPHX
TAF AMD
KPHX 252049Z 2521/2618 VRB04KT P6SM SCT250
     FM260600 09004KT P6SM FEW120 BKN250
     FM260900 09005KT P6SM SCT080 BKN100 OVC200=



000
FTUS45 KPSR 251700
TAFPHX
TAF
KPHX 251726Z 2518/2618 10006KT P6SM SCT250
     FM252200 VRB04KT P6SM SCT250
     FM260600 09004KT P6SM FEW120 BKN250
     FM260900 09005KT P6SM SCT080 BKN100 OVC200=



000
FTUS45 KPSR 251700
TAFIPL
TAF
KIPL 251726Z 2518/2618 27006KT P6SM FEW250
     FM252100 34010KT P6SM FEW250
     FM260400 27005KT P6SM SCT100 BKN200
     FM261000 24005KT P6SM SCT070 BKN100 OVC150
     FM261600 28008KT P6SM -RA SCT030 BKN050 OVC070=



000
FTUS45 KPSR 251700
TAFBLH
TAF
KBLH 251726Z 2518/2618 36008KT P6SM FEW250
     FM260300 34005KT P6SM FEW070 SCT100 BKN200
     FM261200 VRB04KT P6SM SCT070 OVC100=



000
FTUS45 KPSR 251700
TAFIWA
TAF
KIWA 251726Z 2518/2618 VRB04KT P6SM SCT250
     FM260600 10005KT P6SM FEW120 BKN250
     FM261000 11005KT P6SM SCT080 BKN100 OVC200=



000
FTUS45 KPSR 251400 AAA
TAFPHX
TAF AMD
KPHX 251432Z 2515/2612 07006KT P6SM SCT250
     FM252200 VRB04KT P6SM SCT250
     FM260400 09004KT P6SM FEW120 BKN250
     FM261100 09005KT P6SM SCT080 BKN100 OVC200=



000
FTUS45 KPSR 251100
TAFIPL
TAF
KIPL 251128Z 2512/2612 27006KT P6SM FEW250
     FM251800 34010KT P6SM FEW250
     FM260400 27005KT P6SM SCT100 BKN200
     FM261000 24004KT P6SM SCT070 BKN100 OVC150=



000
FTUS45 KPSR 251100
TAFBLH
TAF
KBLH 251128Z 2512/2612 VRB05KT P6SM SKC
     FM251600 01009KT P6SM FEW250
     FM260300 34005KT P6SM FEW070 SCT100 BKN200
     FM261000 VRB04KT P6SM BKN070 OVC100=



000
FTUS45 KPSR 251100
TAFPHX
TAF
KPHX 251128Z 2512/2612 06005KT P6SM FEW250
     FM252200 VRB04KT P6SM SCT250
     FM260400 09004KT P6SM FEW120 BKN250
     FM261100 09005KT P6SM SCT080 BKN100 OVC200=



000
FTUS45 KPSR 251100
TAFIWA
TAF
KIWA 251128Z 2512/2612 19004KT P6SM FEW250
     FM251900 30005KT P6SM SCT250
     FM260300 10005KT P6SM FEW120 BKN250
     FM261000 11005KT P6SM SCT080 BKN100 OVC200
      AMD LTD TO CLD VIS AND WIND TIL 251300=



000
FTUS45 KPSR 251100
TAFIWA
TAF
KIWA 251128Z 2512/2612 19004KT P6SM FEW250
     FM251900 30005KT P6SM SCT250
     FM260300 10005KT P6SM FEW120 BKN250
     FM261000 11005KT P6SM SCT080 BKN100 OVC200
      AMD LTD TO CLD VIS AND WIND TIL 251300=



000
FTUS45 KPSR 250800 AAA
TAFPHX
TAF AMD
KPHX 250841Z 2509/2606 08006KT P6SM FEW250
     FM252200 VRB04KT P6SM SCT250
     FM260200 09004KT P6SM FEW100 BKN250=



000
FTUS45 KPSR 250500
TAFIWA
TAF
KIWA 250520Z 2506/2606 14006KT P6SM FEW250
     FM251900 30005KT P6SM FEW250
     FM260400 10005KT P6SM FEW250
      AMD LTD TO CLD VIS AND WIND TIL 251300=



000
FTUS45 KPSR 250500
TAFPHX
TAF
KPHX 250520Z 2506/2606 07008KT P6SM FEW250
     FM252200 VRB05KT P6SM FEW250=



000
FTUS45 KPSR 250500
TAFIWA
TAF
KIWA 250520Z 2506/2606 14006KT P6SM FEW250
     FM251900 30005KT P6SM FEW250
     FM260400 10005KT P6SM FEW250
      AMD LTD TO CLD VIS AND WIND TIL 251300=



000
FTUS45 KPSR 250500
TAFIPL
TAF
KIPL 250520Z 2506/2606 29006KT P6SM SKC
     FM251800 34010KT P6SM SKC
     FM260100 VRB05KT P6SM SKC=



000
FTUS45 KPSR 250500
TAFBLH
TAF
KBLH 250520Z 2506/2606 34008KT P6SM SKC
     FM250900 VRB05KT P6SM SKC
     FM251700 01012KT P6SM SKC=



000
FTUS45 KPSR 250200 AAA
TAFPHX
TAF AMD
KPHX 250253Z 2503/2524 07008KT P6SM FEW250
      TEMPO 2503/2506 VRB03KT=



000
FTUS45 KPSR 250200 AAA
TAFIWA
TAF AMD
KIWA 250207Z 2502/2524 14006KT P6SM FEW250
     FM251900 30005KT P6SM FEW250
      AMD LTD TO CLD VIS AND WIND 2503/2513=



000
FTUS45 KPSR 250200 AAA
TAFIWA
TAF AMD
KIWA 250207Z 2502/2524 14006KT P6SM FEW250
     FM251900 30005KT P6SM FEW250
      AMD LTD TO CLD VIS AND WIND 2503/2513=



000
FTUS45 KPSR 250200 AAA
TAFIWA
TAF AMD
KIWA 250207Z 2502/2524 14006KT P6SM FEW250
     FM251900 30005KT P6SM FEW250
      AMD LTD TO CLD VIS AND WIND 2503/2513=



000
FTUS45 KPSR 250200 AAA
TAFIWA
TAF AMD
KIWA 250207Z 2502/2524 14006KT P6SM FEW250
     FM251900 30005KT P6SM FEW250
      AMD LTD TO CLD VIS AND WIND 2503/2513=



000
FTUS45 KPSR 242300
TAFIWA
TAF
KIWA 242320Z 2500/2524 10006KT P6SM FEW250
      TEMPO 2500/2502 02008G16KT
     FM251900 30005KT P6SM FEW250
      AMD LTD TO CLD VIS AND WIND 2503/2513=



000
FTUS45 KPSR 242300
TAFIWA
TAF
KIWA 242320Z 2500/2524 10006KT P6SM FEW250
      TEMPO 2500/2502 02008G16KT
     FM251900 30005KT P6SM FEW250
      AMD LTD TO CLD VIS AND WIND 2503/2513=



000
FTUS45 KPSR 242300
TAFIPL
TAF
KIPL 242320Z 2500/2524 02011G16KT P6SM SKC
     FM250200 29006KT P6SM SKC
     FM251800 34010KT P6SM SKC=



000
FTUS45 KPSR 242300
TAFBLH
TAF
KBLH 242320Z 2500/2524 36012G21KT P6SM SKC
     FM250200 34008KT P6SM SKC
     FM250800 07005KT P6SM SKC
     FM251700 01012KT P6SM SKC=



000
FTUS45 KPSR 242300
TAFPHX
TAF
KPHX 242320Z 2500/2524 07008KT P6SM FEW250=



000
FTUS45 KPSR 242200 AAA
TAFIPL
TAF AMD
KIPL 242217Z 2422/2518 03011G16KT P6SM SKC
     FM250200 29006KT P6SM SKC=



000
FTUS45 KPSR 242000 AAA
TAFPHX
TAF AMD
KPHX 242051Z 2421/2518 08012G20KT P6SM SKC
     FM250000 07008KT P6SM FEW250=



000
FTUS45 KPSR 241700
TAFBLH
TAF
KBLH 241720Z 2418/2518 36012G21KT P6SM SKC
     FM250200 33008KT P6SM SKC=



000
FTUS45 KPSR 241700
TAFIPL
TAF
KIPL 241720Z 2418/2518 35010KT P6SM SKC
     FM250200 29006KT P6SM SKC=



000
FTUS45 KPSR 241700
TAFPHX
TAF
KPHX 241720Z 2418/2518 07011G18KT P6SM SKC
     FM242300 06007KT P6SM FEW250=



000
FTUS45 KPSR 241700
TAFIWA
TAF
KIWA 241720Z 2418/2518 05010KT P6SM SKC
     FM250100 10006KT P6SM FEW250=



000
FTUS45 KPSR 241400 AAA
TAFPHX
TAF AMD
KPHX 241440Z 2415/2512 07010KT P6SM SKC
     FM241800 08011G17KT P6SM SKC
     FM242300 06008KT P6SM FEW250=



000
FTUS45 KPSR 241100
TAFIWA
TAF
KIWA 241120Z 2412/2512 09006KT P6SM BKN250
     FM241800 07010G15KT P6SM FEW250
     FM242300 07008KT P6SM FEW250
      AMD LTD TO CLD VIS AND WIND TIL 241300=



000
FTUS45 KPSR 241100
TAFIWA
TAF
KIWA 241120Z 2412/2512 09006KT P6SM BKN250
     FM241800 07010G15KT P6SM FEW250
     FM242300 07008KT P6SM FEW250
      AMD LTD TO CLD VIS AND WIND TIL 241300=



000
FTUS45 KPSR 241100
TAFIPL
TAF
KIPL 241120Z 2412/2512 28006KT P6SM FEW250
     FM241800 35010KT P6SM SKC
     FM250300 29005KT P6SM SKC=



000
FTUS45 KPSR 241100
TAFPHX
TAF
KPHX 241120Z 2412/2512 07007KT P6SM BKN250
     FM241800 07012G18KT P6SM FEW250
     FM242300 05008KT P6SM FEW250=



000
FTUS45 KPSR 241100
TAFBLH
TAF
KBLH 241120Z 2412/2512 34007KT P6SM FEW250
     FM241700 35014G22KT P6SM SKC
     FM250300 35010KT P6SM SKC=



000
FTUS45 KPSR 240800 AAA
TAFPHX
TAF AMD
KPHX 240848Z 2409/2506 07005KT P6SM BKN250
     FM241700 07012G18KT P6SM FEW250
     FM242300 05008KT P6SM FEW250=



000
FTUS45 KPSR 240500
TAFIWA
TAF
KIWA 240520Z 2406/2506 09005KT P6SM BKN250
     FM241800 07010KT P6SM SCT250
      AMD LTD TO CLD VIS AND WIND TIL 241300=



000
FTUS45 KPSR 240500
TAFIWA
TAF
KIWA 240520Z 2406/2506 09005KT P6SM BKN250
     FM241800 07010KT P6SM SCT250
      AMD LTD TO CLD VIS AND WIND TIL 241300=



000
FTUS45 KPSR 240500
TAFBLH
TAF
KBLH 240520Z 2406/2506 VRB05KT P6SM BKN250
     FM240900 34005KT P6SM BKN250
     FM241900 35014G22KT P6SM FEW250
     FM250300 35010KT P6SM SKC=



000
FTUS45 KPSR 240500
TAFIPL
TAF
KIPL 240520Z 2406/2506 29006KT P6SM BKN250
     FM241800 35012KT P6SM FEW250
     FM250300 29007KT P6SM SKC=



000
FTUS45 KPSR 240500
TAFPHX
TAF
KPHX 240520Z 2406/2506 07005KT P6SM BKN250
      TEMPO 2410/2414 VRB03KT
     FM241700 07012G18KT P6SM SCT250
     FM242300 08008KT P6SM FEW250=



000
FTUS45 KPSR 240200 AAA
TAFPHX
TAF AMD
KPHX 240249Z 2403/2424 30006KT P6SM BKN250
     FM240500 07005KT P6SM BKN250
      TEMPO 2410/2414 VRB03KT
     FM241700 07012KT P6SM SCT250=



000
FTUS45 KPSR 240200 AAA
TAFBLH
TAF AMD
KBLH 240200Z 2402/2424 VRB05KT P6SM BKN250
     FM240900 34005KT P6SM BKN250
     FM241900 35014G22KT P6SM FEW250=



000
FTUS45 KPSR 232300
TAFIWA
TAF
KIWA 232320Z 2400/2424 31005KT P6SM BKN250
     FM240400 09005KT P6SM BKN250
     FM241800 07010KT P6SM SCT250
      AMD LTD TO CLD VIS AND WIND 2403/2413=



000
FTUS45 KPSR 232300
TAFBLH
TAF
KBLH 232320Z 2400/2424 34008KT P6SM BKN250
     FM241900 35014G22KT P6SM FEW250=



000
FTUS45 KPSR 232300
TAFIPL
TAF
KIPL 232320Z 2400/2424 29006KT P6SM BKN250
     FM241800 35012KT P6SM FEW250=



000
FTUS45 KPSR 232300
TAFPHX
TAF
KPHX 232320Z 2400/2424 28006KT P6SM BKN250
     FM240400 07005KT P6SM BKN250
      TEMPO 2410/2414 VRB03KT
     FM241700 07012KT P6SM SCT250=



000
FTUS45 KPSR 232000 AAA
TAFPHX
TAF AMD
KPHX 232048Z 2321/2418 28006KT P6SM BKN250
     FM240400 07005KT P6SM BKN250=



000
FTUS45 KPSR 231700
TAFIPL
TAF
KIPL 231720Z 2318/2418 29006KT P6SM BKN250=



000
FTUS45 KPSR 231700
TAFBLH
TAF
KBLH 231720Z 2318/2418 34008KT P6SM BKN250=



000
FTUS45 KPSR 231700
TAFIWA
TAF
KIWA 231720Z 2318/2418 11004KT P6SM BKN250
     FM232000 31005KT P6SM BKN250
     FM240300 09005KT P6SM BKN250=



000
FTUS45 KPSR 231700
TAFPHX
TAF
KPHX 231720Z 2318/2418 12005KT P6SM BKN250
     FM232100 29004KT P6SM BKN250
     FM240400 07005KT P6SM BKN250=



000
FTUS45 KPSR 231700
TAFIWA
TAF
KIWA 231720Z 2318/2418 11004KT P6SM BKN250
     FM232000 31005KT P6SM BKN250
     FM240300 09005KT P6SM BKN250=



000
FTUS45 KPSR 231400 AAA
TAFPHX
TAF AMD
KPHX 231448Z 2315/2412 12005KT P6SM BKN250
     FM232200 29004KT P6SM BKN250
     FM240400 08005KT P6SM BKN250=



    US Dept of Commerce
    National Oceanic and Atmospheric Administration
    National Weather Service
    1325 East West Highway
    Silver Spring, MD 20910
    Page Author: NWS Internet Services Team
Disclaimer
Information Quality
Credits
Glossary
Privacy Policy
Freedom of Information Act (FOIA)
About Us
Career Opportunities